sensor_id;sensor_type;location;lat;lon;timestamp;pressure;altitude;pressure_sealevel;temperature;humidity
38225;BME280;24025;48.138;11.428;2023-12-04T00:00:07;95689.34;;;-6.62;69.86
38225;BME280;24025;48.138;11.428;2023-12-04T00:02:39;95685.41;;;-6.64;70.53
38225;BME280;24025;48.138;11.428;2023-12-04T00:05:10;95674.03;;;-6.63;70.54
38225;BME280;24025;48.138;11.428;2023-12-04T00:07:42;95675.34;;;-6.61;70.17
38225;BME280;24025;48.138;11.428;2023-12-04T00:10:14;95665.22;;;-6.62;70.80
38225;BME280;24025;48.138;11.428;2023-12-04T00:12:46;95653.28;;;-6.63;70.76
38225;BME280;24025;48.138;11.428;2023-12-04T00:15:19;95657.19;;;-6.61;70.39
38225;BME280;24025;48.138;11.428;2023-12-04T00:17:50;95665.97;;;-6.67;70.48
38225;BME280;24025;48.138;11.428;2023-12-04T00:20:22;95653.78;;;-6.66;70.64
38225;BME280;24025;48.138;11.428;2023-12-04T00:22:54;95655.34;;;-6.65;70.81
38225;BME280;24025;48.138;11.428;2023-12-04T00:25:26;95652.50;;;-6.64;70.56
38225;BME280;24025;48.138;11.428;2023-12-04T00:27:57;95653.53;;;-6.65;70.74
38225;BME280;24025;48.138;11.428;2023-12-04T00:30:29;95646.53;;;-6.69;70.94
38225;BME280;24025;48.138;11.428;2023-12-04T00:33:01;95648.06;;;-6.68;71.12
38225;BME280;24025;48.138;11.428;2023-12-04T00:35:32;95649.38;;;-6.66;71.19
38225;BME280;24025;48.138;11.428;2023-12-04T00:38:04;95646.47;;;-6.74;71.54
38225;BME280;24025;48.138;11.428;2023-12-04T00:40:36;95650.63;;;-6.73;72.24
38225;BME280;24025;48.138;11.428;2023-12-04T00:43:07;95650.63;;;-6.73;72.53
38225;BME280;24025;48.138;11.428;2023-12-04T00:45:39;95647.56;;;-6.65;72.76
38225;BME280;24025;48.138;11.428;2023-12-04T00:48:11;95652.28;;;-6.62;72.86
38225;BME280;24025;48.138;11.428;2023-12-04T00:50:43;95643.22;;;-6.60;72.69
38225;BME280;24025;48.138;11.428;2023-12-04T00:53:14;95642.69;;;-6.57;72.66
38225;BME280;24025;48.138;11.428;2023-12-04T00:55:46;95635.22;;;-6.53;72.43
38225;BME280;24025;48.138;11.428;2023-12-04T00:58:17;95635.38;;;-6.65;72.85
38225;BME280;24025;48.138;11.428;2023-12-04T01:00:49;95623.50;;;-6.61;72.47
38225;BME280;24025;48.138;11.428;2023-12-04T01:03:23;95621.16;;;-6.62;73.18
38225;BME280;24025;48.138;11.428;2023-12-04T01:05:58;95621.91;;;-6.67;73.23
38225;BME280;24025;48.138;11.428;2023-12-04T01:08:29;95631.75;;;-6.64;73.33
38225;BME280;24025;48.138;11.428;2023-12-04T01:11:01;95627.59;;;-6.65;73.12
38225;BME280;24025;48.138;11.428;2023-12-04T01:13:33;95627.28;;;-6.73;73.29
38225;BME280;24025;48.138;11.428;2023-12-04T01:16:05;95620.88;;;-6.66;73.49
38225;BME280;24025;48.138;11.428;2023-12-04T01:18:37;95628.69;;;-6.61;73.14
38225;BME280;24025;48.138;11.428;2023-12-04T01:21:09;95632.31;;;-6.57;72.58
38225;BME280;24025;48.138;11.428;2023-12-04T01:23:40;95636.41;;;-6.66;72.99
38225;BME280;24025;48.138;11.428;2023-12-04T01:26:12;95626.34;;;-6.62;73.20
38225;BME280;24025;48.138;11.428;2023-12-04T01:28:44;95621.69;;;-6.60;72.85
38225;BME280;24025;48.138;11.428;2023-12-04T01:31:15;95622.16;;;-6.63;72.53
38225;BME280;24025;48.138;11.428;2023-12-04T01:33:47;95607.94;;;-6.61;72.29
38225;BME280;24025;48.138;11.428;2023-12-04T01:36:19;95614.88;;;-6.71;72.51
38225;BME280;24025;48.138;11.428;2023-12-04T01:38:51;95611.00;;;-6.69;72.47
38225;BME280;24025;48.138;11.428;2023-12-04T01:41:23;95602.44;;;-6.69;72.46
38225;BME280;24025;48.138;11.428;2023-12-04T01:43:54;95606.31;;;-6.72;72.68
38225;BME280;24025;48.138;11.428;2023-12-04T01:46:26;95604.00;;;-6.68;72.53
38225;BME280;24025;48.138;11.428;2023-12-04T01:48:58;95594.63;;;-6.74;73.01
38225;BME280;24025;48.138;11.428;2023-12-04T01:51:31;95593.84;;;-6.75;72.61
38225;BME280;24025;48.138;11.428;2023-12-04T01:54:03;95592.56;;;-6.72;72.13
38225;BME280;24025;48.138;11.428;2023-12-04T01:56:37;95576.22;;;-6.73;72.21
38225;BME280;24025;48.138;11.428;2023-12-04T01:59:09;95560.94;;;-6.79;72.21
38225;BME280;24025;48.138;11.428;2023-12-04T02:01:40;95555.75;;;-6.74;72.34
38225;BME280;24025;48.138;11.428;2023-12-04T02:04:12;95553.94;;;-6.79;72.28
38225;BME280;24025;48.138;11.428;2023-12-04T02:06:44;95555.44;;;-6.83;72.69
38225;BME280;24025;48.138;11.428;2023-12-04T02:09:16;95547.41;;;-6.81;72.63
38225;BME280;24025;48.138;11.428;2023-12-04T02:11:48;95552.59;;;-6.81;72.53
38225;BME280;24025;48.138;11.428;2023-12-04T02:14:19;95544.81;;;-6.81;72.42
38225;BME280;24025;48.138;11.428;2023-12-04T02:16:52;95538.88;;;-6.82;72.40
38225;BME280;24025;48.138;11.428;2023-12-04T02:19:25;95533.69;;;-6.82;72.41
38225;BME280;24025;48.138;11.428;2023-12-04T02:21:58;95528.50;;;-6.82;72.01
38225;BME280;24025;48.138;11.428;2023-12-04T02:24:29;95529.28;;;-6.81;71.84
38225;BME280;24025;48.138;11.428;2023-12-04T02:27:11;95539.69;;;-6.76;71.94
38225;BME280;24025;48.138;11.428;2023-12-04T02:29:51;95528.81;;;-6.73;71.86
38225;BME280;24025;48.138;11.428;2023-12-04T02:32:24;95530.34;;;-6.77;71.76
38225;BME280;24025;48.138;11.428;2023-12-04T02:34:59;95524.66;;;-6.79;72.13
38225;BME280;24025;48.138;11.428;2023-12-04T02:37:34;95528.50;;;-6.82;71.90
38225;BME280;24025;48.138;11.428;2023-12-04T02:40:06;95520.19;;;-6.84;71.57
38225;BME280;24025;48.138;11.428;2023-12-04T02:42:38;95519.44;;;-6.85;71.46
38225;BME280;24025;48.138;11.428;2023-12-04T02:45:09;95518.38;;;-6.83;71.21
38225;BME280;24025;48.138;11.428;2023-12-04T02:47:41;95523.06;;;-6.80;71.17
38225;BME280;24025;48.138;11.428;2023-12-04T02:50:13;95517.34;;;-6.82;71.14
38225;BME280;24025;48.138;11.428;2023-12-04T02:52:44;95530.56;;;-6.84;71.12
38225;BME280;24025;48.138;11.428;2023-12-04T02:55:16;95527.19;;;-6.85;71.16
38225;BME280;24025;48.138;11.428;2023-12-04T02:57:47;95517.09;;;-6.81;71.14
38225;BME280;24025;48.138;11.428;2023-12-04T03:00:19;95513.97;;;-6.83;70.42
38225;BME280;24025;48.138;11.428;2023-12-04T03:02:51;95491.69;;;-6.84;70.54
38225;BME280;24025;48.138;11.428;2023-12-04T03:05:22;95488.59;;;-6.86;70.07
38225;BME280;24025;48.138;11.428;2023-12-04T03:07:54;95495.28;;;-6.90;70.28
38225;BME280;24025;48.138;11.428;2023-12-04T03:10:26;95490.09;;;-6.90;70.41
38225;BME280;24025;48.138;11.428;2023-12-04T03:12:58;95481.28;;;-6.89;70.68
38225;BME280;24025;48.138;11.428;2023-12-04T03:15:29;95479.22;;;-6.92;70.86
38225;BME280;24025;48.138;11.428;2023-12-04T03:18:02;95475.34;;;-6.95;70.71
38225;BME280;24025;48.138;11.428;2023-12-04T03:20:35;95477.66;;;-6.93;70.91
38225;BME280;24025;48.138;11.428;2023-12-04T03:23:07;95466.56;;;-6.89;70.09
38225;BME280;24025;48.138;11.428;2023-12-04T03:25:40;95470.41;;;-6.96;69.94
38225;BME280;24025;48.138;11.428;2023-12-04T03:28:12;95460.81;;;-6.96;70.11
38225;BME280;24025;48.138;11.428;2023-12-04T03:30:46;95454.56;;;-7.05;69.53
38225;BME280;24025;48.138;11.428;2023-12-04T03:33:18;95467.50;;;-7.05;70.34
38225;BME280;24025;48.138;11.428;2023-12-04T03:35:50;95460.25;;;-7.03;70.38
38225;BME280;24025;48.138;11.428;2023-12-04T03:38:21;95453.28;;;-7.02;70.15
38225;BME280;24025;48.138;11.428;2023-12-04T03:40:53;95468.28;;;-7.04;70.31
38225;BME280;24025;48.138;11.428;2023-12-04T03:43:24;95460.53;;;-7.04;70.01
38225;BME280;24025;48.138;11.428;2023-12-04T03:45:56;95466.75;;;-7.05;69.94
38225;BME280;24025;48.138;11.428;2023-12-04T03:48:28;95456.38;;;-7.00;70.11
38225;BME280;24025;48.138;11.428;2023-12-04T03:50:59;95453.00;;;-7.01;69.90
38225;BME280;24025;48.138;11.428;2023-12-04T03:53:33;95445.50;;;-7.02;69.58
38225;BME280;24025;48.138;11.428;2023-12-04T03:56:05;95447.03;;;-7.06;69.66
38225;BME280;24025;48.138;11.428;2023-12-04T03:58:36;95445.94;;;-7.21;69.25
38225;BME280;24025;48.138;11.428;2023-12-04T04:01:10;95442.06;;;-7.18;69.57
38225;BME280;24025;48.138;11.428;2023-12-04T04:03:41;95433.16;;;-7.37;69.22
38225;BME280;24025;48.138;11.428;2023-12-04T04:06:16;95435.50;;;-7.36;69.15
38225;BME280;24025;48.138;11.428;2023-12-04T04:08:48;95431.34;;;-7.37;68.80
38225;BME280;24025;48.138;11.428;2023-12-04T04:11:20;95428.97;;;-7.44;68.71
38225;BME280;24025;48.138;11.428;2023-12-04T04:13:51;95429.97;;;-7.55;68.57
38225;BME280;24025;48.138;11.428;2023-12-04T04:16:24;95440.47;;;-7.72;68.19
38225;BME280;24025;48.138;11.428;2023-12-04T04:18:55;95429.72;;;-7.90;68.98
38225;BME280;24025;48.138;11.428;2023-12-04T04:21:27;95434.63;;;-7.94;69.19
38225;BME280;24025;48.138;11.428;2023-12-04T04:23:59;95427.66;;;-7.93;69.00
38225;BME280;24025;48.138;11.428;2023-12-04T04:26:31;95439.81;;;-7.89;68.83
38225;BME280;24025;48.138;11.428;2023-12-04T04:29:02;95435.22;;;-8.14;68.43
38225;BME280;24025;48.138;11.428;2023-12-04T04:31:34;95423.75;;;-8.28;68.74
38225;BME280;24025;48.138;11.428;2023-12-04T04:34:06;95421.69;;;-8.26;69.65
38225;BME280;24025;48.138;11.428;2023-12-04T04:36:39;95425.31;;;-8.27;69.77
38225;BME280;24025;48.138;11.428;2023-12-04T04:39:13;95422.19;;;-8.29;69.15
38225;BME280;24025;48.138;11.428;2023-12-04T04:41:44;95426.59;;;-8.30;69.12
38225;BME280;24025;48.138;11.428;2023-12-04T04:44:16;95424.53;;;-8.28;68.99
38225;BME280;24025;48.138;11.428;2023-12-04T04:46:48;95423.56;;;-8.16;69.03
38225;BME280;24025;48.138;11.428;2023-12-04T04:49:19;95415.81;;;-8.16;69.05
38225;BME280;24025;48.138;11.428;2023-12-04T04:51:51;95418.66;;;-8.18;69.39
38225;BME280;24025;48.138;11.428;2023-12-04T04:54:23;95412.50;;;-8.12;69.10
38225;BME280;24025;48.138;11.428;2023-12-04T04:56:54;95398.03;;;-8.08;68.73
38225;BME280;24025;48.138;11.428;2023-12-04T04:59:26;95391.31;;;-8.09;68.26
38225;BME280;24025;48.138;11.428;2023-12-04T05:02:01;95391.78;;;-8.17;67.97
38225;BME280;24025;48.138;11.428;2023-12-04T05:04:33;95379.09;;;-8.18;68.48
38225;BME280;24025;48.138;11.428;2023-12-04T05:07:04;95378.34;;;-8.14;68.64
38225;BME280;24025;48.138;11.428;2023-12-04T05:09:36;95375.22;;;-8.16;68.26
38225;BME280;24025;48.138;11.428;2023-12-04T05:12:08;95370.56;;;-8.14;68.22
38225;BME280;24025;48.138;11.428;2023-12-04T05:14:39;95385.31;;;-8.14;67.46
38225;BME280;24025;48.138;11.428;2023-12-04T05:17:11;95389.19;;;-8.17;67.60
38225;BME280;24025;48.138;11.428;2023-12-04T05:19:43;95386.84;;;-8.18;68.30
38225;BME280;24025;48.138;11.428;2023-12-04T05:22:15;95381.94;;;-8.20;68.24
38225;BME280;24025;48.138;11.428;2023-12-04T05:24:46;95369.03;;;-8.15;68.50
38225;BME280;24025;48.138;11.428;2023-12-04T05:27:18;95369.81;;;-8.14;68.69
38225;BME280;24025;48.138;11.428;2023-12-04T05:29:50;95370.81;;;-8.15;68.15
38225;BME280;24025;48.138;11.428;2023-12-04T05:32:22;95368.00;;;-8.14;68.34
38225;BME280;24025;48.138;11.428;2023-12-04T05:34:54;95375.78;;;-8.09;68.38
38225;BME280;24025;48.138;11.428;2023-12-04T05:37:26;95383.31;;;-8.07;68.02
38225;BME280;24025;48.138;11.428;2023-12-04T05:39:57;95386.34;;;-8.15;68.65
38225;BME280;24025;48.138;11.428;2023-12-04T05:42:29;95386.16;;;-8.46;68.06
38225;BME280;24025;48.138;11.428;2023-12-04T05:45:00;95383.31;;;-8.44;68.76
38225;BME280;24025;48.138;11.428;2023-12-04T05:47:32;95376.78;;;-8.52;68.88
38225;BME280;24025;48.138;11.428;2023-12-04T05:50:04;95373.03;;;-8.66;68.44
38225;BME280;24025;48.138;11.428;2023-12-04T05:52:36;95379.19;;;-8.72;68.37
38225;BME280;24025;48.138;11.428;2023-12-04T05:55:08;95375.09;;;-8.68;67.61
38225;BME280;24025;48.138;11.428;2023-12-04T05:57:40;95370.50;;;-8.61;67.65
38225;BME280;24025;48.138;11.428;2023-12-04T06:00:12;95368.16;;;-8.63;67.34
38225;BME280;24025;48.138;11.428;2023-12-04T06:02:44;95364.13;;;-8.80;67.67
38225;BME280;24025;48.138;11.428;2023-12-04T06:05:16;95361.56;;;-8.75;67.75
38225;BME280;24025;48.138;11.428;2023-12-04T06:07:48;95351.56;;;-8.72;67.90
38225;BME280;24025;48.138;11.428;2023-12-04T06:10:19;95347.19;;;-8.66;67.77
38225;BME280;24025;48.138;11.428;2023-12-04T06:12:51;95345.88;;;-8.69;69.04
38225;BME280;24025;48.138;11.428;2023-12-04T06:15:23;95344.38;;;-8.65;68.65
38225;BME280;24025;48.138;11.428;2023-12-04T06:17:55;95339.41;;;-8.71;68.01
38225;BME280;24025;48.138;11.428;2023-12-04T06:20:26;95354.16;;;-8.67;68.17
38225;BME280;24025;48.138;11.428;2023-12-04T06:22:58;95354.13;;;-8.72;67.60
38225;BME280;24025;48.138;11.428;2023-12-04T06:25:30;95348.91;;;-8.77;68.20
38225;BME280;24025;48.138;11.428;2023-12-04T06:28:02;95349.41;;;-8.80;68.55
38225;BME280;24025;48.138;11.428;2023-12-04T06:30:34;95346.06;;;-8.75;68.55
38225;BME280;24025;48.138;11.428;2023-12-04T06:33:07;95331.16;;;-8.68;68.39
38225;BME280;24025;48.138;11.428;2023-12-04T06:35:39;95334.28;;;-8.66;68.04
38225;BME280;24025;48.138;11.428;2023-12-04T06:38:14;95323.75;;;-8.60;68.77
38225;BME280;24025;48.138;11.428;2023-12-04T06:40:46;95328.72;;;-8.53;68.20
38225;BME280;24025;48.138;11.428;2023-12-04T06:43:18;95317.84;;;-8.55;68.69
38225;BME280;24025;48.138;11.428;2023-12-04T06:45:51;95318.88;;;-8.56;68.45
38225;BME280;24025;48.138;11.428;2023-12-04T06:48:23;95311.13;;;-8.56;68.38
38225;BME280;24025;48.138;11.428;2023-12-04T06:50:54;95319.66;;;-8.55;68.53
38225;BME280;24025;48.138;11.428;2023-12-04T06:53:26;95321.22;;;-8.54;68.14
38225;BME280;24025;48.138;11.428;2023-12-04T06:55:58;95317.53;;;-8.59;68.00
38225;BME280;24025;48.138;11.428;2023-12-04T06:58:29;95324.50;;;-8.64;67.62
38225;BME280;24025;48.138;11.428;2023-12-04T07:01:01;95313.72;;;-8.56;67.79
38225;BME280;24025;48.138;11.428;2023-12-04T07:03:33;95308.81;;;-8.52;67.98
38225;BME280;24025;48.138;11.428;2023-12-04T07:06:05;95300.84;;;-8.46;68.06
38225;BME280;24025;48.138;11.428;2023-12-04T07:08:37;95306.75;;;-8.50;68.06
38225;BME280;24025;48.138;11.428;2023-12-04T07:11:09;95307.84;;;-8.41;67.65
38225;BME280;24025;48.138;11.428;2023-12-04T07:13:41;95297.50;;;-8.46;67.79
38225;BME280;24025;48.138;11.428;2023-12-04T07:16:13;95302.47;;;-8.35;67.43
38225;BME280;24025;48.138;11.428;2023-12-04T07:18:45;95295.50;;;-8.29;66.79
38225;BME280;24025;48.138;11.428;2023-12-04T07:21:17;95286.19;;;-8.30;66.87
38225;BME280;24025;48.138;11.428;2023-12-04T07:23:48;95282.53;;;-8.34;66.55
38225;BME280;24025;48.138;11.428;2023-12-04T07:26:20;95274.84;;;-8.24;67.01
38225;BME280;24025;48.138;11.428;2023-12-04T07:28:51;95274.06;;;-8.24;66.87
38225;BME280;24025;48.138;11.428;2023-12-04T07:31:23;95269.97;;;-8.15;66.65
38225;BME280;24025;48.138;11.428;2023-12-04T07:33:55;95257.34;;;-8.12;66.82
38225;BME280;24025;48.138;11.428;2023-12-04T07:36:29;95262.78;;;-8.08;66.47
38225;BME280;24025;48.138;11.428;2023-12-04T07:39:00;95245.97;;;-8.11;66.08
38225;BME280;24025;48.138;11.428;2023-12-04T07:41:32;95241.31;;;-8.09;66.61
38225;BME280;24025;48.138;11.428;2023-12-04T07:44:04;95241.28;;;-8.14;66.90
38225;BME280;24025;48.138;11.428;2023-12-04T07:46:36;95258.13;;;-8.11;66.89
38225;BME280;24025;48.138;11.428;2023-12-04T07:49:08;95256.06;;;-8.04;67.18
38225;BME280;24025;48.138;11.428;2023-12-04T07:51:39;95261.50;;;-8.06;66.67
38225;BME280;24025;48.138;11.428;2023-12-04T07:54:11;95271.22;;;-8.28;66.83
38225;BME280;24025;48.138;11.428;2023-12-04T07:56:43;95281.13;;;-8.57;67.02
38225;BME280;24025;48.138;11.428;2023-12-04T07:59:15;95279.47;;;-8.36;67.71
38225;BME280;24025;48.138;11.428;2023-12-04T08:01:47;95279.66;;;-8.48;67.21
38225;BME280;24025;48.138;11.428;2023-12-04T08:04:19;95283.31;;;-8.76;68.01
38225;BME280;24025;48.138;11.428;2023-12-04T08:06:50;95284.19;;;-8.60;67.86
38225;BME280;24025;48.138;11.428;2023-12-04T08:09:22;95285.66;;;-8.37;67.97
38225;BME280;24025;48.138;11.428;2023-12-04T08:11:54;95295.06;;;-8.21;68.23
38225;BME280;24025;48.138;11.428;2023-12-04T08:14:29;95282.91;;;-8.15;67.71
38225;BME280;24025;48.138;11.428;2023-12-04T08:17:01;95264.44;;;-7.87;67.02
38225;BME280;24025;48.138;11.428;2023-12-04T08:19:34;95259.88;;;-7.64;67.09
38225;BME280;24025;48.138;11.428;2023-12-04T08:22:06;95248.22;;;-7.62;66.55
38225;BME280;24025;48.138;11.428;2023-12-04T08:24:38;95250.31;;;-7.59;66.58
38225;BME280;24025;48.138;11.428;2023-12-04T08:27:10;95254.47;;;-7.58;67.14
38225;BME280;24025;48.138;11.428;2023-12-04T08:29:42;95249.03;;;-7.51;67.22
38225;BME280;24025;48.138;11.428;2023-12-04T08:32:13;95256.00;;;-7.52;67.40
38225;BME280;24025;48.138;11.428;2023-12-04T08:34:45;95259.16;;;-7.39;67.33
38225;BME280;24025;48.138;11.428;2023-12-04T08:37:18;95261.84;;;-7.87;67.46
38225;BME280;24025;48.138;11.428;2023-12-04T08:39:50;95248.72;;;-7.75;67.55
38225;BME280;24025;48.138;11.428;2023-12-04T08:42:22;95247.72;;;-7.54;67.78
38225;BME280;24025;48.138;11.428;2023-12-04T08:44:54;95252.66;;;-8.15;68.43
38225;BME280;24025;48.138;11.428;2023-12-04T08:47:29;95258.38;;;-8.08;68.87
38225;BME280;24025;48.138;11.428;2023-12-04T08:50:00;95249.44;;;-7.85;68.38
38225;BME280;24025;48.138;11.428;2023-12-04T08:52:33;95251.38;;;-7.50;68.35
38225;BME280;24025;48.138;11.428;2023-12-04T08:55:06;95260.41;;;-7.52;67.76
38225;BME280;24025;48.138;11.428;2023-12-04T08:57:40;95253.91;;;-7.65;68.04
38225;BME280;24025;48.138;11.428;2023-12-04T09:00:13;95252.66;;;-7.57;67.92
38225;BME280;24025;48.138;11.428;2023-12-04T09:02:44;95252.22;;;-7.19;67.53
38225;BME280;24025;48.138;11.428;2023-12-04T09:05:27;95267.00;;;-7.04;67.03
38225;BME280;24025;48.138;11.428;2023-12-04T09:08:00;95250.94;;;-7.01;67.33
38225;BME280;24025;48.138;11.428;2023-12-04T09:10:51;95247.06;;;-6.83;67.73
38225;BME280;24025;48.138;11.428;2023-12-04T09:13:43;95241.34;;;-7.05;66.57
38225;BME280;24025;48.138;11.428;2023-12-04T09:16:16;95240.56;;;-6.65;66.75
38225;BME280;24025;48.138;11.428;2023-12-04T09:18:49;95242.34;;;-6.45;66.98
38225;BME280;24025;48.138;11.428;2023-12-04T09:21:20;95237.72;;;-6.43;66.48
38225;BME280;24025;48.138;11.428;2023-12-04T09:23:52;95234.81;;;-6.32;66.73
38225;BME280;24025;48.138;11.428;2023-12-04T09:26:24;95230.44;;;-6.57;66.90
38225;BME280;24025;48.138;11.428;2023-12-04T09:28:56;95240.53;;;-6.30;67.11
38225;BME280;24025;48.138;11.428;2023-12-04T09:31:27;95250.91;;;-6.24;67.21
38225;BME280;24025;48.138;11.428;2023-12-04T09:34:00;95243.13;;;-6.40;67.82
38225;BME280;24025;48.138;11.428;2023-12-04T09:36:31;95244.19;;;-6.46;68.16
38225;BME280;24025;48.138;11.428;2023-12-04T09:39:03;95251.19;;;-6.57;68.01
38225;BME280;24025;48.138;11.428;2023-12-04T09:41:35;95260.28;;;-6.74;67.94
38225;BME280;24025;48.138;11.428;2023-12-04T09:44:08;95254.53;;;-6.46;68.13
38225;BME280;24025;48.138;11.428;2023-12-04T09:46:40;95252.44;;;-6.23;67.79
38225;BME280;24025;48.138;11.428;2023-12-04T09:49:13;95246.25;;;-6.33;67.31
38225;BME280;24025;48.138;11.428;2023-12-04T09:51:48;95241.84;;;-6.32;67.58
38225;BME280;24025;48.138;11.428;2023-12-04T09:54:19;95229.06;;;-6.13;66.87
38225;BME280;24025;48.138;11.428;2023-12-04T09:56:51;95217.81;;;-5.88;66.82
38225;BME280;24025;48.138;11.428;2023-12-04T09:59:24;95224.28;;;-5.86;66.91
38225;BME280;24025;48.138;11.428;2023-12-04T10:01:59;95222.34;;;-5.60;66.65
38225;BME280;24025;48.138;11.428;2023-12-04T10:04:32;95213.75;;;-6.05;68.08
38225;BME280;24025;48.138;11.428;2023-12-04T10:07:08;95205.06;;;-5.80;67.42
38225;BME280;24025;48.138;11.428;2023-12-04T10:09:40;95198.47;;;-5.62;66.94
38225;BME280;24025;48.138;11.428;2023-12-04T10:12:12;95199.84;;;-5.30;67.06
38225;BME280;24025;48.138;11.428;2023-12-04T10:15:07;95205.81;;;-4.91;66.24
38225;BME280;24025;48.138;11.428;2023-12-04T10:17:41;95185.47;;;-4.54;65.13
38225;BME280;24025;48.138;11.428;2023-12-04T10:20:14;95166.69;;;-4.22;64.28
38225;BME280;24025;48.138;11.428;2023-12-04T10:22:58;95171.16;;;-4.28;63.69
38225;BME280;24025;48.138;11.428;2023-12-04T10:25:30;95157.81;;;-4.21;63.22
38225;BME280;24025;48.138;11.428;2023-12-04T10:28:09;95162.38;;;-4.32;63.54
38225;BME280;24025;48.138;11.428;2023-12-04T10:30:41;95160.50;;;-3.84;63.61
38225;BME280;24025;48.138;11.428;2023-12-04T10:33:13;95161.56;;;-3.47;64.01
38225;BME280;24025;48.138;11.428;2023-12-04T10:35:46;95166.94;;;-3.57;63.10
38225;BME280;24025;48.138;11.428;2023-12-04T10:38:18;95170.09;;;-3.42;63.13
38225;BME280;24025;48.138;11.428;2023-12-04T10:40:50;95164.63;;;-4.02;63.57
38225;BME280;24025;48.138;11.428;2023-12-04T10:43:24;95163.28;;;-4.47;64.86
38225;BME280;24025;48.138;11.428;2023-12-04T10:45:56;95156.69;;;-3.73;63.70
38225;BME280;24025;48.138;11.428;2023-12-04T10:48:28;95140.63;;;-3.99;64.94
38225;BME280;24025;48.138;11.428;2023-12-04T10:51:00;95132.00;;;-3.75;65.61
38225;BME280;24025;48.138;11.428;2023-12-04T10:53:32;95142.13;;;-4.16;65.11
38225;BME280;24025;48.138;11.428;2023-12-04T10:56:05;95144.34;;;-4.05;66.07
38225;BME280;24025;48.138;11.428;2023-12-04T10:58:37;95132.91;;;-4.28;66.71
38225;BME280;24025;48.138;11.428;2023-12-04T11:01:11;95127.50;;;-4.31;66.41
38225;BME280;24025;48.138;11.428;2023-12-04T11:03:48;95126.06;;;-4.00;67.29
38225;BME280;24025;48.138;11.428;2023-12-04T11:06:21;95118.25;;;-4.00;67.31
38225;BME280;24025;48.138;11.428;2023-12-04T11:08:55;95113.69;;;-3.89;67.11
38225;BME280;24025;48.138;11.428;2023-12-04T11:11:36;95111.50;;;-4.01;68.20
38225;BME280;24025;48.138;11.428;2023-12-04T11:14:14;95099.97;;;-3.76;67.81
38225;BME280;24025;48.138;11.428;2023-12-04T11:17:01;95091.38;;;-3.57;67.95
38225;BME280;24025;48.138;11.428;2023-12-04T11:19:54;95079.53;;;-3.50;68.21
38225;BME280;24025;48.138;11.428;2023-12-04T11:22:27;95069.97;;;-3.22;67.88
38225;BME280;24025;48.138;11.428;2023-12-04T11:24:59;95066.81;;;-3.05;67.64
38225;BME280;24025;48.138;11.428;2023-12-04T11:27:34;95070.13;;;-2.99;66.19
38225;BME280;24025;48.138;11.428;2023-12-04T11:30:07;95064.91;;;-2.86;66.76
38225;BME280;24025;48.138;11.428;2023-12-04T11:32:46;95065.25;;;-2.73;67.31
38225;BME280;24025;48.138;11.428;2023-12-04T11:35:25;95060.78;;;-2.59;66.60
38225;BME280;24025;48.138;11.428;2023-12-04T11:37:58;95053.81;;;-2.50;66.25
38225;BME280;24025;48.138;11.428;2023-12-04T11:40:30;95045.44;;;-2.47;66.90
38225;BME280;24025;48.138;11.428;2023-12-04T11:43:20;95047.75;;;-2.45;66.78
38225;BME280;24025;48.138;11.428;2023-12-04T11:45:53;95052.38;;;-2.42;66.31
38225;BME280;24025;48.138;11.428;2023-12-04T11:48:25;95051.72;;;-2.62;66.02
38225;BME280;24025;48.138;11.428;2023-12-04T11:50:59;95057.22;;;-2.63;66.67
38225;BME280;24025;48.138;11.428;2023-12-04T11:53:32;95066.53;;;-3.03;67.75
38225;BME280;24025;48.138;11.428;2023-12-04T11:56:10;95064.50;;;-3.06;68.44
38225;BME280;24025;48.138;11.428;2023-12-04T11:58:44;95064.34;;;-3.29;69.23
38225;BME280;24025;48.138;11.428;2023-12-04T12:01:20;95067.94;;;-3.25;68.95
38225;BME280;24025;48.138;11.428;2023-12-04T12:03:52;95058.16;;;-3.33;69.08
38225;BME280;24025;48.138;11.428;2023-12-04T12:06:24;95058.66;;;-3.31;69.81
38225;BME280;24025;48.138;11.428;2023-12-04T12:08:56;95074.34;;;-3.17;68.95
38225;BME280;24025;48.138;11.428;2023-12-04T12:11:29;95066.00;;;-3.19;69.71
38225;BME280;24025;48.138;11.428;2023-12-04T12:14:01;95071.50;;;-3.21;69.47
38225;BME280;24025;48.138;11.428;2023-12-04T12:16:33;95059.09;;;-3.10;70.09
38225;BME280;24025;48.138;11.428;2023-12-04T12:19:05;95041.81;;;-3.06;70.28
38225;BME280;24025;48.138;11.428;2023-12-04T12:21:37;95033.63;;;-2.86;69.39
38225;BME280;24025;48.138;11.428;2023-12-04T12:24:11;95026.97;;;-2.64;69.84
38225;BME280;24025;48.138;11.428;2023-12-04T12:26:44;95036.75;;;-2.56;69.65
38225;BME280;24025;48.138;11.428;2023-12-04T12:29:16;95029.94;;;-2.43;69.02
38225;BME280;24025;48.138;11.428;2023-12-04T12:31:49;95045.44;;;-2.61;68.66
38225;BME280;24025;48.138;11.428;2023-12-04T12:34:21;95042.13;;;-2.52;69.12
38225;BME280;24025;48.138;11.428;2023-12-04T12:36:53;95054.69;;;-2.41;68.42
38225;BME280;24025;48.138;11.428;2023-12-04T12:39:25;95052.06;;;-2.41;68.84
38225;BME280;24025;48.138;11.428;2023-12-04T12:41:56;95043.47;;;-2.28;68.59
38225;BME280;24025;48.138;11.428;2023-12-04T12:44:28;95047.75;;;-2.45;68.88
38225;BME280;24025;48.138;11.428;2023-12-04T12:47:02;95046.09;;;-2.28;68.69
38225;BME280;24025;48.138;11.428;2023-12-04T12:49:34;95048.91;;;-1.88;68.01
38225;BME280;24025;48.138;11.428;2023-12-04T12:52:13;95039.22;;;-1.87;67.90
38225;BME280;24025;48.138;11.428;2023-12-04T12:54:45;95028.50;;;-1.41;67.17
38225;BME280;24025;48.138;11.428;2023-12-04T12:57:17;95028.00;;;-1.43;66.17
38225;BME280;24025;48.138;11.428;2023-12-04T12:59:49;95014.69;;;-1.33;66.73
38225;BME280;24025;48.138;11.428;2023-12-04T13:02:20;95023.03;;;-1.31;66.04
38225;BME280;24025;48.138;11.428;2023-12-04T13:04:55;95023.50;;;-1.29;66.78
38225;BME280;24025;48.138;11.428;2023-12-04T13:07:27;95008.50;;;-0.75;65.92
38225;BME280;24025;48.138;11.428;2023-12-04T13:09:59;94995.56;;;-0.80;65.98
38225;BME280;24025;48.138;11.428;2023-12-04T13:12:31;94991.03;;;-0.48;65.69
38225;BME280;24025;48.138;11.428;2023-12-04T13:15:03;94973.47;;;-0.48;65.47
38225;BME280;24025;48.138;11.428;2023-12-04T13:17:36;94960.38;;;-0.48;65.08